sensor_id;sensor_type;location;lat;lon;timestamp;pressure;altitude;pressure_sealevel;temperature;humidity
1371;BME280;14306;49.942;11.570;2022-09-14T00:01:34;96825.75;;;17.85;95.04
1371;BME280;14306;49.942;11.570;2022-09-14T00:04:05;96821.44;;;17.84;94.68
1371;BME280;14306;49.942;11.570;2022-09-14T00:06:34;96819.31;;;17.97;94.12
1371;BME280;14306;49.942;11.570;2022-09-14T00:09:03;96820.72;;;17.87;94.55
1371;BME280;14306;49.942;11.570;2022-09-14T00:11:35;96813.72;;;17.90;93.99
1371;BME280;14306;49.942;11.570;2022-09-14T00:14:07;96816.69;;;17.81;94.68
1371;BME280;14306;49.942;11.570;2022-09-14T00:16:37;96824.84;;;17.78;94.72
1371;BME280;14306;49.942;11.570;2022-09-14T00:19:12;96815.47;;;17.79;95.00
1371;BME280;14306;49.942;11.570;2022-09-14T00:21:40;96813.03;;;17.96;94.33
1371;BME280;14306;49.942;11.570;2022-09-14T00:24:10;96811.47;;;17.95;94.37
1371;BME280;14306;49.942;11.570;2022-09-14T00:26:40;96798.34;;;17.85;94.16
1371;BME280;14306;49.942;11.570;2022-09-14T00:29:09;96805.81;;;17.85;94.02
1371;BME280;14306;49.942;11.570;2022-09-14T00:31:38;96792.47;;;17.83;94.32
1371;BME280;14306;49.942;11.570;2022-09-14T00:34:08;96788.66;;;17.69;94.57
1371;BME280;14306;49.942;11.570;2022-09-14T00:36:40;96778.38;;;17.62;95.05
1371;BME280;14306;49.942;11.570;2022-09-14T00:39:08;96773.41;;;17.68;95.11
1371;BME280;14306;49.942;11.570;2022-09-14T00:41:40;96773.88;;;17.73;95.10
1371;BME280;14306;49.942;11.570;2022-09-14T00:47:11;96766.94;;;17.57;96.03
1371;BME280;14306;49.942;11.570;2022-09-14T00:49:40;96759.47;;;17.76;95.62
1371;BME280;14306;49.942;11.570;2022-09-14T00:52:12;96751.84;;;17.89;94.37
1371;BME280;14306;49.942;11.570;2022-09-14T00:54:43;96758.47;;;17.88;94.30
1371;BME280;14306;49.942;11.570;2022-09-14T00:57:14;96755.53;;;18.00;93.33
1371;BME280;14306;49.942;11.570;2022-09-14T00:59:44;96763.09;;;17.84;93.36
1371;BME280;14306;49.942;11.570;2022-09-14T01:02:13;96771.41;;;17.87;93.42
1371;BME280;14306;49.942;11.570;2022-09-14T01:04:42;96768.28;;;17.89;93.87
1371;BME280;14306;49.942;11.570;2022-09-14T01:07:19;96761.03;;;17.77;94.52
1371;BME280;14306;49.942;11.570;2022-09-14T01:09:54;96758.19;;;17.93;94.32
1371;BME280;14306;49.942;11.570;2022-09-14T01:12:32;96750.44;;;17.98;93.14
1371;BME280;14306;49.942;11.570;2022-09-14T01:15:06;96746.84;;;17.94;92.43
1371;BME280;14306;49.942;11.570;2022-09-14T01:17:42;96753.78;;;17.88;93.29
1371;BME280;14306;49.942;11.570;2022-09-14T01:20:21;96760.25;;;17.77;93.47
1371;BME280;14306;49.942;11.570;2022-09-14T01:23:00;96761.94;;;17.62;94.27
1371;BME280;14306;49.942;11.570;2022-09-14T01:25:41;96748.75;;;17.68;93.77
1371;BME280;14306;49.942;11.570;2022-09-14T01:28:21;96753.19;;;17.76;93.79
1371;BME280;14306;49.942;11.570;2022-09-14T01:30:52;96754.72;;;17.73;93.44
1371;BME280;14306;49.942;11.570;2022-09-14T01:33:25;96746.63;;;17.80;93.91
1371;BME280;14306;49.942;11.570;2022-09-14T01:35:57;96755.31;;;17.63;94.62
1371;BME280;14306;49.942;11.570;2022-09-14T01:38:30;96751.25;;;17.76;93.28
1371;BME280;14306;49.942;11.570;2022-09-14T01:41:01;96748.88;;;17.75;92.79
1371;BME280;14306;49.942;11.570;2022-09-14T01:43:36;96748.38;;;17.69;92.47
1371;BME280;14306;49.942;11.570;2022-09-14T01:46:09;96741.53;;;17.82;92.71
1371;BME280;14306;49.942;11.570;2022-09-14T01:48:41;96749.72;;;17.79;92.58
1371;BME280;14306;49.942;11.570;2022-09-14T01:51:12;96733.41;;;17.86;93.74
1371;BME280;14306;49.942;11.570;2022-09-14T01:53:44;96728.22;;;17.81;92.32
1371;BME280;14306;49.942;11.570;2022-09-14T01:56:16;96711.72;;;17.77;92.89
1371;BME280;14306;49.942;11.570;2022-09-14T01:58:50;96729.63;;;17.49;94.13
1371;BME280;14306;49.942;11.570;2022-09-14T02:01:25;96727.75;;;17.53;94.82
1371;BME280;14306;49.942;11.570;2022-09-14T02:03:58;96723.38;;;17.71;93.50
1371;BME280;14306;49.942;11.570;2022-09-14T02:06:33;96724.09;;;17.68;93.35
1371;BME280;14306;49.942;11.570;2022-09-14T02:09:03;96723.56;;;17.59;94.29
1371;BME280;14306;49.942;11.570;2022-09-14T02:11:33;96713.09;;;17.64;94.27
1371;BME280;14306;49.942;11.570;2022-09-14T02:14:02;96710.28;;;17.61;94.96
1371;BME280;14306;49.942;11.570;2022-09-14T02:16:31;96710.41;;;17.45;94.63
1371;BME280;14306;49.942;11.570;2022-09-14T02:18:59;96699.94;;;17.51;94.25
1371;BME280;14306;49.942;11.570;2022-09-14T02:21:29;96691.47;;;17.59;93.39
1371;BME280;14306;49.942;11.570;2022-09-14T02:23:58;96679.91;;;17.69;93.09
1371;BME280;14306;49.942;11.570;2022-09-14T02:26:27;96680.59;;;17.63;93.11
1371;BME280;14306;49.942;11.570;2022-09-14T02:28:56;96677.47;;;17.64;93.15
1371;BME280;14306;49.942;11.570;2022-09-14T02:31:34;96681.84;;;17.69;93.55
1371;BME280;14306;49.942;11.570;2022-09-14T02:34:09;96687.81;;;17.74;92.50
1371;BME280;14306;49.942;11.570;2022-09-14T02:36:46;96683.97;;;17.79;92.57
1371;BME280;14306;49.942;11.570;2022-09-14T02:39:23;96667.06;;;17.73;93.13
1371;BME280;14306;49.942;11.570;2022-09-14T02:41:59;96675.75;;;17.79;92.83
1371;BME280;14306;49.942;11.570;2022-09-14T02:44:37;96675.75;;;17.79;93.01
1371;BME280;14306;49.942;11.570;2022-09-14T02:47:14;96670.84;;;17.65;93.04
1371;BME280;14306;49.942;11.570;2022-09-14T02:49:49;96672.50;;;17.47;93.00
1371;BME280;14306;49.942;11.570;2022-09-14T02:52:26;96664.00;;;17.52;94.70
1371;BME280;14306;49.942;11.570;2022-09-14T02:55:01;96661.53;;;17.47;94.99
1371;BME280;14306;49.942;11.570;2022-09-14T02:57:30;96669.72;;;17.44;94.96
1371;BME280;14306;49.942;11.570;2022-09-14T02:59:58;96652.84;;;17.42;94.93
1371;BME280;14306;49.942;11.570;2022-09-14T03:02:27;96655.34;;;17.50;94.92
1371;BME280;14306;49.942;11.570;2022-09-14T03:04:56;96660.00;;;17.50;94.92
1371;BME280;14306;49.942;11.570;2022-09-14T03:07:25;96651.91;;;17.57;94.34
1371;BME280;14306;49.942;11.570;2022-09-14T03:09:53;96662.50;;;17.36;95.42
1371;BME280;14306;49.942;11.570;2022-09-14T03:12:21;96660.91;;;17.35;95.29
1371;BME280;14306;49.942;11.570;2022-09-14T03:14:49;96660.69;;;17.43;95.12
1371;BME280;14306;49.942;11.570;2022-09-14T03:17:17;96659.97;;;17.46;95.40
1371;BME280;14306;49.942;11.570;2022-09-14T03:19:46;96651.53;;;17.58;95.06
1371;BME280;14306;49.942;11.570;2022-09-14T03:22:14;96657.75;;;17.55;95.85
1371;BME280;14306;49.942;11.570;2022-09-14T03:24:42;96639.63;;;17.70;94.95
1371;BME280;14306;49.942;11.570;2022-09-14T03:27:11;96639.34;;;17.78;95.54
1371;BME280;14306;49.942;11.570;2022-09-14T03:29:39;96638.44;;;17.71;96.12
1371;BME280;14306;49.942;11.570;2022-09-14T03:32:07;96634.78;;;17.63;96.15
1371;BME280;14306;49.942;11.570;2022-09-14T03:34:36;96635.44;;;17.79;95.11
1371;BME280;14306;49.942;11.570;2022-09-14T03:37:05;96625.84;;;17.66;94.63
1371;BME280;14306;49.942;11.570;2022-09-14T03:39:34;96624.31;;;17.69;94.99
1371;BME280;14306;49.942;11.570;2022-09-14T03:42:02;96627.25;;;17.79;94.56
1371;BME280;14306;49.942;11.570;2022-09-14T03:44:30;96625.34;;;17.83;94.51
1371;BME280;14306;49.942;11.570;2022-09-14T03:46:58;96636.03;;;17.66;95.12
1371;BME280;14306;49.942;11.570;2022-09-14T03:49:26;96646.19;;;17.65;95.47
1371;BME280;14306;49.942;11.570;2022-09-14T03:51:54;96646.81;;;17.55;96.48
1371;BME280;14306;49.942;11.570;2022-09-14T03:54:26;96649.72;;;17.66;96.36
1371;BME280;14306;49.942;11.570;2022-09-14T03:56:54;96654.88;;;17.71;95.70
1371;BME280;14306;49.942;11.570;2022-09-14T03:59:22;96661.13;;;17.71;95.75
1371;BME280;14306;49.942;11.570;2022-09-14T04:01:50;96665.72;;;17.64;95.89
1371;BME280;14306;49.942;11.570;2022-09-14T04:04:18;96668.47;;;17.64;96.69
1371;BME280;14306;49.942;11.570;2022-09-14T04:06:47;96674.72;;;17.90;95.24
1371;BME280;14306;49.942;11.570;2022-09-14T04:09:15;96675.47;;;18.13;94.33
1371;BME280;14306;49.942;11.570;2022-09-14T04:11:46;96688.06;;;17.92;95.37
1371;BME280;14306;49.942;11.570;2022-09-14T04:14:14;96688.34;;;17.83;95.87
1371;BME280;14306;49.942;11.570;2022-09-14T04:16:43;96687.66;;;17.90;96.45
1371;BME280;14306;49.942;11.570;2022-09-14T04:19:11;96682.16;;;17.64;98.44
1371;BME280;14306;49.942;11.570;2022-09-14T04:21:40;96676.97;;;17.36;99.58
1371;BME280;14306;49.942;11.570;2022-09-14T04:24:09;96669.00;;;17.28;99.70
1371;BME280;14306;49.942;11.570;2022-09-14T04:26:42;96662.06;;;17.34;99.74
1371;BME280;14306;49.942;11.570;2022-09-14T04:29:12;96647.06;;;17.47;100.00
1371;BME280;14306;49.942;11.570;2022-09-14T04:31:42;96632.34;;;17.55;99.16
1371;BME280;14306;49.942;11.570;2022-09-14T04:34:11;96641.53;;;17.43;99.30
1371;BME280;14306;49.942;11.570;2022-09-14T04:36:40;96636.31;;;17.61;99.10
1371;BME280;14306;49.942;11.570;2022-09-14T04:39:09;96630.16;;;17.67;98.69
1371;BME280;14306;49.942;11.570;2022-09-14T04:41:39;96624.84;;;17.52;98.52
1371;BME280;14306;49.942;11.570;2022-09-14T04:44:07;96616.66;;;17.78;97.47
1371;BME280;14306;49.942;11.570;2022-09-14T04:46:37;96617.25;;;17.68;97.27
1371;BME280;14306;49.942;11.570;2022-09-14T04:49:12;96606.88;;;17.54;98.45
1371;BME280;14306;49.942;11.570;2022-09-14T04:51:41;96601.03;;;17.56;97.96
1371;BME280;14306;49.942;11.570;2022-09-14T04:54:12;96599.34;;;17.48;99.20
1371;BME280;14306;49.942;11.570;2022-09-14T04:56:41;96591.03;;;17.67;98.44
1371;BME280;14306;49.942;11.570;2022-09-14T04:59:09;96586.75;;;17.43;99.11
1371;BME280;14306;49.942;11.570;2022-09-14T05:01:40;96585.84;;;17.62;99.05
1371;BME280;14306;49.942;11.570;2022-09-14T05:04:10;96567.88;;;17.38;100.00
1371;BME280;14306;49.942;11.570;2022-09-14T05:06:40;96573.56;;;17.49;99.59
1371;BME280;14306;49.942;11.570;2022-09-14T05:09:11;96589.09;;;17.41;99.93
1371;BME280;14306;49.942;11.570;2022-09-14T05:11:40;96595.41;;;17.45;100.00
1371;BME280;14306;49.942;11.570;2022-09-14T05:14:10;96603.31;;;17.50;99.96
1371;BME280;14306;49.942;11.570;2022-09-14T05:16:41;96601.19;;;17.66;98.95
1371;BME280;14306;49.942;11.570;2022-09-14T05:19:12;96598.63;;;17.51;100.00
1371;BME280;14306;49.942;11.570;2022-09-14T05:21:40;96600.09;;;17.45;99.78
1371;BME280;14306;49.942;11.570;2022-09-14T05:24:11;96596.50;;;17.41;100.00
1371;BME280;14306;49.942;11.570;2022-09-14T05:26:41;96599.69;;;17.43;100.00
1371;BME280;14306;49.942;11.570;2022-09-14T05:29:13;96605.06;;;17.39;100.00
1371;BME280;14306;49.942;11.570;2022-09-14T05:31:43;96598.97;;;17.27;100.00
1371;BME280;14306;49.942;11.570;2022-09-14T05:34:12;96604.94;;;17.32;100.00
1371;BME280;14306;49.942;11.570;2022-09-14T05:36:40;96600.63;;;17.31;100.00
1371;BME280;14306;49.942;11.570;2022-09-14T05:39:09;96611.00;;;17.41;100.00
1371;BME280;14306;49.942;11.570;2022-09-14T05:41:39;96607.22;;;17.49;100.00
1371;BME280;14306;49.942;11.570;2022-09-14T05:44:08;96589.66;;;17.54;99.70
1371;BME280;14306;49.942;11.570;2022-09-14T05:46:40;96592.22;;;17.66;100.00
1371;BME280;14306;49.942;11.570;2022-09-14T05:49:09;96593.34;;;17.65;100.00
1371;BME280;14306;49.942;11.570;2022-09-14T05:51:38;96592.97;;;17.66;100.00
1371;BME280;14306;49.942;11.570;2022-09-14T05:54:09;96593.34;;;17.65;99.77
1371;BME280;14306;49.942;11.570;2022-09-14T05:56:38;96602.50;;;17.76;99.25
1371;BME280;14306;49.942;11.570;2022-09-14T05:59:08;96596.78;;;17.84;99.51
1371;BME280;14306;49.942;11.570;2022-09-14T06:01:36;96590.44;;;17.80;99.28
1371;BME280;14306;49.942;11.570;2022-09-14T06:04:05;96584.31;;;17.90;99.01
1371;BME280;14306;49.942;11.570;2022-09-14T06:06:35;96581.75;;;17.75;99.82
1371;BME280;14306;49.942;11.570;2022-09-14T06:09:03;96580.38;;;17.88;99.84
1371;BME280;14306;49.942;11.570;2022-09-14T06:11:32;96576.06;;;17.87;99.93
1371;BME280;14306;49.942;11.570;2022-09-14T06:14:01;96574.22;;;17.94;99.55
1371;BME280;14306;49.942;11.570;2022-09-14T06:16:33;96578.00;;;18.16;98.89
1371;BME280;14306;49.942;11.570;2022-09-14T06:19:01;96569.84;;;18.23;98.35
1371;BME280;14306;49.942;11.570;2022-09-14T06:21:33;96561.72;;;17.97;99.93
1371;BME280;14306;49.942;11.570;2022-09-14T06:24:03;96554.16;;;17.90;100.00
1371;BME280;14306;49.942;11.570;2022-09-14T06:26:32;96550.28;;;17.91;100.00
1371;BME280;14306;49.942;11.570;2022-09-14T06:29:00;96542.72;;;17.81;100.00
1371;BME280;14306;49.942;11.570;2022-09-14T06:31:28;96533.94;;;17.98;100.00
1371;BME280;14306;49.942;11.570;2022-09-14T06:33:58;96542.22;;;18.05;99.75
1371;BME280;14306;49.942;11.570;2022-09-14T06:36:27;96550.59;;;18.16;98.98
1371;BME280;14306;49.942;11.570;2022-09-14T06:38:55;96551.44;;;18.20;98.32
1371;BME280;14306;49.942;11.570;2022-09-14T06:41:27;96540.31;;;18.39;97.79
1371;BME280;14306;49.942;11.570;2022-09-14T06:43:57;96539.66;;;18.19;98.58
1371;BME280;14306;49.942;11.570;2022-09-14T06:46:27;96535.91;;;18.31;97.14
1371;BME280;14306;49.942;11.570;2022-09-14T06:48:58;96535.09;;;18.30;97.89
1371;BME280;14306;49.942;11.570;2022-09-14T06:51:29;96536.59;;;18.57;97.30
1371;BME280;14306;49.942;11.570;2022-09-14T06:53:58;96542.25;;;18.38;97.51
1371;BME280;14306;49.942;11.570;2022-09-14T06:56:30;96546.00;;;18.56;97.52
1371;BME280;14306;49.942;11.570;2022-09-14T06:59:02;96530.09;;;18.72;96.72
1371;BME280;14306;49.942;11.570;2022-09-14T07:01:31;96534.03;;;18.78;96.66
1371;BME280;14306;49.942;11.570;2022-09-14T07:03:59;96536.94;;;18.52;97.16
1371;BME280;14306;49.942;11.570;2022-09-14T07:06:36;96539.31;;;18.54;96.96
1371;BME280;14306;49.942;11.570;2022-09-14T07:09:05;96528.69;;;18.89;95.63
1371;BME280;14306;49.942;11.570;2022-09-14T07:11:35;96532.56;;;19.32;96.29
1371;BME280;14306;49.942;11.570;2022-09-14T07:14:03;96533.97;;;19.62;95.16
1371;BME280;14306;49.942;11.570;2022-09-14T07:16:32;96535.13;;;19.61;94.61
1371;BME280;14306;49.942;11.570;2022-09-14T07:19:04;96531.41;;;19.33;95.16
1371;BME280;14306;49.942;11.570;2022-09-14T07:21:35;96531.47;;;19.43;95.41
1371;BME280;14306;49.942;11.570;2022-09-14T07:24:03;96529.00;;;19.24;96.22
1371;BME280;14306;49.942;11.570;2022-09-14T07:26:33;96528.41;;;19.52;96.38
1371;BME280;14306;49.942;11.570;2022-09-14T07:29:10;96533.44;;;18.99;96.18
1371;BME280;14306;49.942;11.570;2022-09-14T07:31:40;96533.75;;;19.31;95.61
1371;BME280;14306;49.942;11.570;2022-09-14T07:34:10;96534.88;;;19.26;95.13
1371;BME280;14306;49.942;11.570;2022-09-14T07:36:40;96538.69;;;19.14;96.93
1371;BME280;14306;49.942;11.570;2022-09-14T07:39:09;96544.84;;;19.01;96.89
1371;BME280;14306;49.942;11.570;2022-09-14T07:41:38;96542.94;;;19.08;96.15
1371;BME280;14306;49.942;11.570;2022-09-14T07:44:13;96537.22;;;19.24;94.74
1371;BME280;14306;49.942;11.570;2022-09-14T07:46:43;96534.09;;;18.82;95.49
1371;BME280;14306;49.942;11.570;2022-09-14T07:49:12;96528.97;;;18.80;96.45
1371;BME280;14306;49.942;11.570;2022-09-14T07:51:42;96537.34;;;18.54;96.59
1371;BME280;14306;49.942;11.570;2022-09-14T07:54:11;96529.91;;;18.55;96.55
1371;BME280;14306;49.942;11.570;2022-09-14T07:56:40;96537.88;;;18.67;96.80
1371;BME280;14306;49.942;11.570;2022-09-14T07:59:11;96528.72;;;18.52;96.84
1371;BME280;14306;49.942;11.570;2022-09-14T08:02:00;96530.56;;;18.41;97.38
1371;BME280;14306;49.942;11.570;2022-09-14T08:04:28;96515.28;;;18.40;96.62
1371;BME280;14306;49.942;11.570;2022-09-14T08:06:56;96516.28;;;18.29;96.72
1371;BME280;14306;49.942;11.570;2022-09-14T08:09:24;96523.34;;;18.30;98.02
1371;BME280;14306;49.942;11.570;2022-09-14T08:11:53;96521.63;;;18.51;97.71
1371;BME280;14306;49.942;11.570;2022-09-14T08:14:23;96524.94;;;18.67;97.13
1371;BME280;14306;49.942;11.570;2022-09-14T08:16:51;96529.44;;;18.89;96.22
1371;BME280;14306;49.942;11.570;2022-09-14T08:19:20;96524.81;;;18.97;94.87
1371;BME280;14306;49.942;11.570;2022-09-14T08:21:48;96514.94;;;18.89;94.69
1371;BME280;14306;49.942;11.570;2022-09-14T08:24:18;96530.25;;;18.90;95.25
1371;BME280;14306;49.942;11.570;2022-09-14T08:26:47;96530.16;;;18.79;95.21
1371;BME280;14306;49.942;11.570;2022-09-14T08:29:17;96517.13;;;18.69;96.80
1371;BME280;14306;49.942;11.570;2022-09-14T08:31:47;96519.94;;;18.76;96.16
1371;BME280;14306;49.942;11.570;2022-09-14T08:34:18;96521.91;;;18.79;97.14
1371;BME280;14306;49.942;11.570;2022-09-14T08:36:47;96516.47;;;18.83;96.64
1371;BME280;14306;49.942;11.570;2022-09-14T08:39:16;96520.47;;;18.92;96.53
1371;BME280;14306;49.942;11.570;2022-09-14T08:41:50;96517.34;;;18.94;96.45
1371;BME280;14306;49.942;11.570;2022-09-14T08:44:23;96518.69;;;18.70;96.65
1371;BME280;14306;49.942;11.570;2022-09-14T08:46:58;96520.75;;;18.80;96.61
1371;BME280;14306;49.942;11.570;2022-09-14T08:49:44;96520.66;;;18.70;96.94
1371;BME280;14306;49.942;11.570;2022-09-14T08:52:21;96514.88;;;18.82;97.82
1371;BME280;14306;49.942;11.570;2022-09-14T08:54:54;96510.16;;;18.79;96.88
1371;BME280;14306;49.942;11.570;2022-09-14T08:57:27;96508.00;;;19.02;96.51
1371;BME280;14306;49.942;11.570;2022-09-14T09:00:05;96510.50;;;18.74;96.89
1371;BME280;14306;49.942;11.570;2022-09-14T09:02:48;96511.56;;;19.06;96.81
1371;BME280;14306;49.942;11.570;2022-09-14T09:05:27;96512.19;;;19.33;97.00
1371;BME280;14306;49.942;11.570;2022-09-14T09:08:02;96510.25;;;19.40;95.68
1371;BME280;14306;49.942;11.570;2022-09-14T09:10:34;96507.56;;;19.51;95.65
1371;BME280;14306;49.942;11.570;2022-09-14T09:13:09;96503.09;;;19.93;95.12
1371;BME280;14306;49.942;11.570;2022-09-14T09:15:43;96515.50;;;19.59;93.06
1371;BME280;14306;49.942;11.570;2022-09-14T09:18:19;96524.31;;;19.96;93.94
1371;BME280;14306;49.942;11.570;2022-09-14T09:20:50;96510.31;;;20.15;94.65
1371;BME280;14306;49.942;11.570;2022-09-14T09:23:20;96504.66;;;19.91;94.35
1371;BME280;14306;49.942;11.570;2022-09-14T09:25:56;96513.06;;;20.15;93.97
1371;BME280;14306;49.942;11.570;2022-09-14T09:28:27;96525.09;;;19.93;92.63
1371;BME280;14306;49.942;11.570;2022-09-14T09:30:58;96515.78;;;20.12;94.68
1371;BME280;14306;49.942;11.570;2022-09-14T09:33:29;96522.34;;;19.93;92.54
1371;BME280;14306;49.942;11.570;2022-09-14T09:35:58;96526.41;;;20.24;96.37
1371;BME280;14306;49.942;11.570;2022-09-14T09:38:28;96522.09;;;20.19;93.46
1371;BME280;14306;49.942;11.570;2022-09-14T09:40:59;96518.16;;;20.20;94.12
1371;BME280;14306;49.942;11.570;2022-09-14T09:43:29;96516.72;;;20.61;93.79
1371;BME280;14306;49.942;11.570;2022-09-14T09:46:16;96513.53;;;20.45;92.67
1371;BME280;14306;49.942;11.570;2022-09-14T09:48:46;96528.16;;;20.84;93.83
1371;BME280;14306;49.942;11.570;2022-09-14T09:51:15;96539.53;;;20.65;92.08
1371;BME280;14306;49.942;11.570;2022-09-14T09:53:51;96532.03;;;20.52;94.30
1371;BME280;14306;49.942;11.570;2022-09-14T09:56:22;96543.41;;;20.40;90.53
1371;BME280;14306;49.942;11.570;2022-09-14T09:58:51;96541.50;;;20.68;93.07
1371;BME280;14306;49.942;11.570;2022-09-14T10:01:25;96533.66;;;20.77;92.63
1371;BME280;14306;49.942;11.570;2022-09-14T10:04:15;96539.06;;;20.46;90.33
1371;BME280;14306;49.942;11.570;2022-09-14T10:06:45;96529.25;;;20.48;92.00
1371;BME280;14306;49.942;11.570;2022-09-14T10:09:24;96530.44;;;20.54;92.18
1371;BME280;14306;49.942;11.570;2022-09-14T10:11:59;96537.94;;;20.61;93.88
1371;BME280;14306;49.942;11.570;2022-09-14T10:14:30;96538.75;;;20.72;92.13
1371;BME280;14306;49.942;11.570;2022-09-14T10:17:18;96529.31;;;20.80;92.53
1371;BME280;14306;49.942;11.570;2022-09-14T10:19:51;96513.16;;;20.54;93.33
1371;BME280;14306;49.942;11.570;2022-09-14T10:22:25;96535.59;;;20.77;90.95
1371;BME280;14306;49.942;11.570;2022-09-14T10:24:56;96527.34;;;20.84;90.81
1371;BME280;14306;49.942;11.570;2022-09-14T10:27:35;96533.69;;;21.05;89.02
1371;BME280;14306;49.942;11.570;2022-09-14T10:30:11;96517.16;;;20.95;91.60
1371;BME280;14306;49.942;11.570;2022-09-14T10:32:45;96525.84;;;21.00;90.99
1371;BME280;14306;49.942;11.570;2022-09-14T10:35:22;96516.00;;;21.03;91.21
1371;BME280;14306;49.942;11.570;2022-09-14T10:37:59;96524.25;;;21.31;91.43
1371;BME280;14306;49.942;11.570;2022-09-14T10:40:35;96526.59;;;21.46;89.01
1371;BME280;14306;49.942;11.570;2022-09-14T10:43:16;96519.09;;;21.61;89.97
1371;BME280;14306;49.942;11.570;2022-09-14T10:45:50;96516.38;;;21.71;92.44
1371;BME280;14306;49.942;11.570;2022-09-14T10:48:50;96518.69;;;21.69;89.38
1371;BME280;14306;49.942;11.570;2022-09-14T10:51:38;96519.88;;;21.61;90.08
1371;BME280;14306;49.942;11.570;2022-09-14T10:54:28;96514.41;;;21.58;90.55
1371;BME280;14306;49.942;11.570;2022-09-14T10:57:08;96511.25;;;21.45;89.10
1371;BME280;14306;49.942;11.570;2022-09-14T10:59:49;96501.41;;;21.48;88.95
1371;BME280;14306;49.942;11.570;2022-09-14T11:02:48;96497.06;;;21.57;90.16
1371;BME280;14306;49.942;11.570;2022-09-14T11:05:22;96495.03;;;21.82;87.16
1371;BME280;14306;49.942;11.570;2022-09-14T11:08:05;96497.38;;;21.91;86.40
1371;BME280;14306;49.942;11.570;2022-09-14T11:10:53;96495.09;;;21.58;87.40
1371;BME280;14306;49.942;11.570;2022-09-14T11:13:38;96503.34;;;21.61;85.95
1371;BME280;14306;49.942;11.570;2022-09-14T11:16:20;96504.09;;;21.69;85.26
1371;BME280;14306;49.942;11.570;2022-09-14T11:18:59;96501.75;;;21.85;85.29
1371;BME280;14306;49.942;11.570;2022-09-14T11:21:37;96494.97;;;22.00;84.20
1371;BME280;14306;49.942;11.570;2022-09-14T11:24:16;96484.63;;;22.25;82.11
1371;BME280;14306;49.942;11.570;2022-09-14T11:26:56;96491.81;;;22.01;81.68
1371;BME280;14306;49.942;11.570;2022-09-14T11:29:30;96486.91;;;22.40;82.37
1371;BME280;14306;49.942;11.570;2022-09-14T11:32:03;96494.56;;;22.12;83.84
1371;BME280;14306;49.942;11.570;2022-09-14T11:34:51;96480.22;;;22.38;80.32
1371;BME280;14306;49.942;11.570;2022-09-14T11:37:29;96478.97;;;22.53;83.43
1371;BME280;14306;49.942;11.570;2022-09-14T11:40:05;96472.50;;;22.77;79.28
1371;BME280;14306;49.942;11.570;2022-09-14T11:42:44;96465.25;;;22.94;79.17
1371;BME280;14306;49.942;11.570;2022-09-14T11:45:18;96457.81;;;23.35;79.12
1371;BME280;14306;49.942;11.570;2022-09-14T11:47:54;96450.06;;;23.23;79.06
1371;BME280;14306;49.942;11.570;2022-09-14T11:50:26;96460.06;;;23.50;82.48
1371;BME280;14306;49.942;11.570;2022-09-14T11:53:02;96458.38;;;23.56;79.01
1371;BME280;14306;49.942;11.570;2022-09-14T11:55:33;96464.91;;;23.76;75.25
1371;BME280;14306;49.942;11.570;2022-09-14T11:58:05;96467.69;;;23.76;75.53
1371;BME280;14306;49.942;11.570;2022-09-14T12:01:03;96476.66;;;23.50;76.28
1371;BME280;14306;49.942;11.570;2022-09-14T12:03:51;96472.69;;;23.07;78.22
1371;BME280;14306;49.942;11.570;2022-09-14T12:06:43;96480.47;;;23.19;76.67
1371;BME280;14306;49.942;11.570;2022-09-14T12:12:43;96478.63;;;23.02;75.07
1371;BME280;14306;49.942;11.570;2022-09-14T12:15:19;96477.91;;;22.95;77.37
1371;BME280;14306;49.942;11.570;2022-09-14T12:17:49;96463.28;;;22.98;76.64
1371;BME280;14306;49.942;11.570;2022-09-14T12:20:37;96469.53;;;23.05;77.01
1371;BME280;14306;49.942;11.570;2022-09-14T12:23:29;96442.75;;;22.99;78.62
1371;BME280;14306;49.942;11.570;2022-09-14T12:26:25;96454.66;;;22.92;77.85
1371;BME280;14306;49.942;11.570;2022-09-14T12:29:02;96456.00;;;22.70;78.62
1371;BME280;14306;49.942;11.570;2022-09-14T12:34:31;96431.00;;;22.88;76.67
1371;BME280;14306;49.942;11.570;2022-09-14T12:40:12;96446.44;;;23.29;78.16
1371;BME280;14306;49.942;11.570;2022-09-14T12:42:50;96456.47;;;23.53;74.96
1371;BME280;14306;49.942;11.570;2022-09-14T12:45:48;96461.03;;;23.30;76.35
1371;BME280;14306;49.942;11.570;2022-09-14T12:51:34;96458.31;;;23.67;74.99
1371;BME280;14306;49.942;11.570;2022-09-14T12:54:19;96459.63;;;24.22;72.57
1371;BME280;14306;49.942;11.570;2022-09-14T12:56:59;96468.03;;;24.12;74.08
1371;BME280;14306;49.942;11.570;2022-09-14T12:59:35;96463.41;;;23.28;74.67
1371;BME280;14306;49.942;11.570;2022-09-14T13:05:20;96469.97;;;23.44;75.30
1371;BME280;14306;49.942;11.570;2022-09-14T13:07:50;96469.09;;;23.54;73.63
1371;BME280;14306;49.942;11.570;2022-09-14T13:10:23;96457.41;;;23.36;74.01
1371;BME280;14306;49.942;11.570;2022-09-14T13:12:52;96471.03;;;23.57;77.00
1371;BME280;14306;49.942;11.570;2022-09-14T13:15:21;96468.25;;;23.94;74.44
1371;BME280;14306;49.942;11.570;2022-09-14T13:18:02;96465.31;;;23.75;76.01
1371;BME280;14306;49.942;11.570;2022-09-14T13:20:32;96470.34;;;23.83;74.86
1371;BME280;14306;49.942;11.570;2022-09-14T13:23:02;96465.53;;;23.91;73.43
1371;BME280;14306;49.942;11.570;2022-09-14T13:25:32;96454.72;;;24.03;73.65
1371;BME280;14306;49.942;11.570;2022-09-14T13:28:03;96474.56;;;23.61;74.84
1371;BME280;14306;49.942;11.570;2022-09-14T13:30:33;96478.38;;;23.34;75.43
1371;BME280;14306;49.942;11.570;2022-09-14T13:33:04;96484.13;;;23.50;73.67
1371;BME280;14306;49.942;11.570;2022-09-14T13:35:34;96476.75;;;23.40;74.18
1371;BME280;14306;49.942;11.570;2022-09-14T13:38:07;96451.22;;;22.74;75.64
1371;BME280;14306;49.942;11.570;2022-09-14T13:40:37;96472.16;;;22.68;76.33
1371;BME280;14306;49.942;11.570;2022-09-14T13:43:05;96481.28;;;22.62;76.57
1371;BME280;14306;49.942;11.570;2022-09-14T13:45:34;96485.53;;;22.77;76.34
1371;BME280;14306;49.942;11.570;2022-09-14T13:48:07;96490.47;;;22.99;74.46